Flight Number: AVA4066 Duration: 4:30
Departure: Matar al Bahrayn (Bahrain) (OBBI) at 11:45 Distance: 1855.9 Nm
Arrival: Kathmandu Tribhuwan Airport (VNKT) at 16:15 Equipment: B757-200

Weather Information
Bahrain International Airport , Bahrain (OBBI) 26-16N 050-39E 2M Jun 19, 2024 - 09:00 AM EDT / 2024.06.19 1300 UTC
Wind: from the NW (320 degrees) at 9 MPH (8 KT):0
Visibility: greater than 7 mile(s):0 Temperature: 113 F (45 C) Dew Point: 41 F (5 C) Relative Humidity: 9% Pressure (altimeter): 29.47 in. Hg (0998 hPa)
ob: OBBI 191300Z 32008KT CAVOK 45/05 Q0998 NOSIG cycle: 13
Sunrise: 01:48 Sunset: 15:29 (UTC)

Kathmandu Airport, Nepal (VNKT) 27-42N 085-22E 1337M Jun 19, 2024 - 09:00 AM EDT / 2024.06.19 1300 UTC
Wind: from the SW (230 degrees) at 8 MPH (7 KT):0
Visibility: 3 mile(s):0
Sky conditions: mostly cloudy Weather: rain in the vicinity; Cumulonimbus clouds observed Temperature: 78 F (26 C) Dew Point: 69 F (21 C) Relative Humidity: 73% Pressure (altimeter): 29.68 in. Hg (1005 hPa)
ob: VNKT 191300Z 23007KT 6000 VCRA FEW015 FEW025CB SCT030 BKN100 26/21 Q1005 NOSIG CB TO S SW W NW N NE E AND OVERHEAD cycle: 13
Sunrise: 23:26 Sunset: 13:14 (UTC)

TAF:2024/06/19 12:45 VNKT 191100Z 1912/2012 22010KT 7000 FEW015 SCT030 BKN100 PROB40 1912/1916 27012KT 5000 -TSRA/RA FEW025CB BECMG 1915/1916 12004KT 6000 FEW015 SCT030 BKN100 BECMG 2000/2002 VRB02KT 5000 -RA/BR FEW010 SCT030 BKN100 BECMG 2004/2005 27004KT 6000 FEW015 SCT030 BKN100 BECMG 2007/2008 29008KT 7000 FEW020 SCT030 BKN100 PROB40 2007/2012 28012KT 5000 -TSRA/RA FEW025CB

Previous Pireps for this route
Date Flightnr Aircraft Flight time Fuel used Landing rate On time
2017-04-19AVA4066B757-20004.2262708-265Yes
(pireps marked green are flown by you)

Route map